• Join FlightAware (Why Join?)
  • Login
  • US Flag 
11:13PM EDT


 

Airport Tracker/Info


-or-


 

Live Flight TrackerFlight Track Log ✈ TRS398 ✈ 17-May-2013 ✈ KMCO - KMKE

Flight Track Log - Related Links

Times and Time Zones

All times are in EDT time to prevent confusion due to time zone crossing. See the TRS398 flight status page for this flight to view local times or setup timezone preferences in your user account.

Time Position Orientation Groundspeed Altitude Reporting Facility
EDT Latitude Longitude Course Direction KTS MPH feet Rate Location/Type
02:53PM 28.4000 -81.3000 221° Southwest 173 199 600  Level Orlando TRACON
02:54PM 28.3667 -81.3333 221° Southwest 242 278 1,700 1,740 Climbing Orlando TRACON
02:55PM 28.3333 -81.4000 240° Southwest 280 322 4,200 2,520 Climbing Orlando TRACON
02:56PM 28.3667 -81.4833 294° West 293 337 6,900 1,860 Climbing Orlando TRACON
02:58PM 28.5267 -81.5197 349° North 304 350 10,000 1,500 Climbing Jacksonville Center
02:59PM 28.6122 -81.5400 348° North 298 343 11,600 1,440 Climbing Jacksonville Center
03:00PM 28.7106 -81.5575 351° North 321 369 12,900 1,500 Climbing Jacksonville Center
03:01PM 28.8131 -81.5822 348° North 354 407 14,700 1,920 Climbing Jacksonville Center
03:02PM 28.9219 -81.6069 349° North 382 440 16,800 1,800 Climbing Jacksonville Center
03:03PM 29.0328 -81.6292 350° North 395 455 18,400 1,680 Climbing Jacksonville Center
03:04PM 29.1458 -81.6564 348° North 400 460 20,200 1,740 Climbing Jacksonville Center
03:05PM 29.2567 -81.6811 349° North 410 472 21,900 1,500 Climbing Jacksonville Center
03:06PM 29.3717 -81.7058 349° North 410 472 23,200 1,260 Climbing Jacksonville Center
03:07PM 29.4928 -81.7139 357° North 417 480 24,500 1,200 Climbing Jacksonville Center
03:08PM 29.6161 -81.7197 358° North 430 495 25,600 960 Climbing Jacksonville Center
03:09PM 29.7414 -81.7300 356° North 441 507 26,500 900 Climbing Jacksonville Center
03:10PM 29.8689 -81.7358 358° North 447 514 27,500 1,020 Climbing Jacksonville Center
03:11PM 29.9961 -81.7461 356° North 447 514 28,600 960 Climbing Jacksonville Center
03:12PM 30.1089 -81.7497 358° North 447 514 29,500 960 Climbing Jacksonville Center
03:13PM 30.2364 -81.7603 356° North 447 514 30,600 720 Climbing Jacksonville Center
03:14PM 30.3639 -81.7683 357° North 452 520 31,000 180 Climbing Jacksonville Center
03:15PM 30.4892 -81.7742 358° North 452 520 31,000  Level Jacksonville Center
03:16PM 30.6208 -81.7894 354° North 457 526 31,000  Level Jacksonville Center
03:17PM 30.7461 -81.7975 357° North 457 526 31,000  Level Jacksonville Center
03:18PM 30.8636 -81.8422 342° North 455 524 31,000  Level Jacksonville Center
03:19PM 30.9789 -81.8942 339° North 449 517 31,000  Level Jacksonville Center
03:20PM 31.0939 -81.9489 338° Northwest 444 511 31,000  Level Jacksonville Center
03:21PM 31.2092 -82.0036 338° Northwest 436 502 31,000  Level Jacksonville Center
03:22PM 31.3267 -82.0608 337° Northwest 441 507 31,000  Level Jacksonville Center
03:23PM 31.4458 -82.1206 337° Northwest 447 514 31,000  Level Jacksonville Center
03:24PM 31.5633 -82.1758 338° Northwest 452 520 31,000  Level Jacksonville Center
03:25PM 31.6908 -82.2308 340° North 451 519 31,000  Level Jacksonville Center
03:26PM 31.8103 -82.2886 338° Northwest 451 519 31,000  Level Jacksonville Center
03:28PM 32.0508 -82.4069 337° Northwest 468 539 31,000  Level Atlanta Center
03:29PM 32.1664 -82.4611 338° Northwest 456 525 31,000 420 Level Atlanta Center
03:30PM 32.2861 -82.5181 338° Northwest 456 525 31,900 480 Climbing Atlanta Center
03:31PM 32.4039 -82.5800 336° Northwest 456 525 32,000  Climbing Atlanta Center
03:32PM 32.5214 -82.6372 338° Northwest 456 525 32,000  Level Atlanta Center
03:33PM 32.6389 -82.6894 339° North 456 525 32,000  Level Atlanta Center
03:34PM 32.7583 -82.7519 336° Northwest 456 525 32,000  Level Atlanta Center
03:35PM 32.8758 -82.8094 338° Northwest 456 525 32,000  Level Atlanta Center
03:36PM 32.9914 -82.8700 336° Northwest 456 525 32,000  Level Atlanta Center
03:37PM 33.1086 -82.9253 338° Northwest 456 525 32,000  Level Atlanta Center
03:38PM 33.2408 -82.9883 338° Northwest 456 525 32,000  Level Atlanta Center
03:39PM 33.3519 -83.0464 336° Northwest 454 522 32,000  Level Atlanta Center
03:40PM 33.4714 -83.1050 338° Northwest 448 516 32,000  Level Atlanta Center
03:41PM 33.5867 -83.1636 337° Northwest 448 516 32,000  Level Atlanta Center
03:42PM 33.6997 -83.2197 338° Northwest 442 509 32,000  Level Atlanta Center
03:43PM 33.8128 -83.2761 337° Northwest 442 509 32,000  Level Atlanta Center
03:44PM 33.9278 -83.3353 337° Northwest 437 503 32,000  Level Atlanta Center
03:45PM 34.0431 -83.3919 338° Northwest 442 509 32,000  Level Atlanta Center
03:46PM 34.1561 -83.4514 336° Northwest 442 509 32,000  Level Atlanta Center
03:47PM 34.2753 -83.5108 338° Northwest 442 509 32,000  Level Atlanta Center
03:48PM 34.3736 -83.5606 337° Northwest 442 509 32,000  Level Atlanta Center
03:49PM 34.4906 -83.6231 336° Northwest 442 509 32,000  Level Atlanta Center
03:50PM 34.6056 -83.6831 337° Northwest 442 509 32,000  Level Atlanta Center
03:51PM 34.7225 -83.7431 337° Northwest 442 509 32,000  Level Atlanta Center
03:53PM 34.9503 -83.8639 337° Northwest 442 509 32,000  Level Atlanta Center
03:54PM 35.0653 -83.9219 338° Northwest 437 503 32,000  Level Atlanta Center
03:55PM 35.1800 -83.9828 337° Northwest 437 503 32,000  Level Atlanta Center
03:56PM 35.2928 -84.0439 336° Northwest 437 503 32,000  Level Atlanta Center
03:57PM 35.4094 -84.1025 338° Northwest 437 503 32,000  Level Atlanta Center
03:58PM 35.5242 -84.1639 336° Northwest 442 509 32,000  Level Atlanta Center
03:59PM 35.6389 -84.2253 336° Northwest 442 509 32,000  Level Atlanta Center
04:00PM 35.7536 -84.2844 337° Northwest 442 509 32,000  Level Atlanta Center
04:01PM 35.8661 -84.3436 337° Northwest 437 503 32,000  Level Atlanta Center
04:02PM 35.9931 -84.4133 336° Northwest 443 510 32,000  Level Atlanta Center
04:03PM 36.1789 -84.5114 337° Northwest 450 518 32,000  Level Indianapolis Center
04:04PM 36.2925 -84.5731 336° Northwest 451 519 32,000  Level Indianapolis Center
04:05PM 36.4064 -84.6347 336° Northwest 450 518 32,000  Level Indianapolis Center
04:06PM 36.5211 -84.6972 336° Northwest 451 519 32,000  Level Indianapolis Center
04:07PM 36.6356 -84.7586 337° Northwest 448 516 32,000  Level Indianapolis Center
04:08PM 36.7744 -84.8353 336° Northwest 455 524 32,000  Level Indianapolis Center
04:09PM 36.8908 -84.9006 336° Northwest 457 526 32,000  Level Indianapolis Center
04:11PM 37.0064 -84.9633 337° Northwest 454 522 32,000  Level Indianapolis Center
04:12PM 37.1214 -85.0258 337° Northwest 460 529 32,000  Level Indianapolis Center
04:13PM 37.2594 -85.1022 336° Northwest 463 533 32,000  Level Indianapolis Center
04:14PM 37.3778 -85.1692 336° Northwest 463 533 32,000  Level Indianapolis Center
04:15PM 37.4964 -85.2356 336° Northwest 464 534 32,000  Level Indianapolis Center
04:16PM 37.6128 -85.3022 336° Northwest 460 529 32,000  Level Indianapolis Center
04:17PM 37.7294 -85.3678 336° Northwest 457 526 32,000  Level Indianapolis Center
04:18PM 37.8406 -85.4289 337° Northwest 459 528 32,000  Level Indianapolis Center
04:19PM 37.9814 -85.5072 336° Northwest 458 527 32,000  Level Indianapolis Center
04:20PM 38.0967 -85.5731 336° Northwest 457 526 32,000  Level Indianapolis Center
04:21PM 38.2131 -85.6403 336° Northwest 458 527 32,000  Level Indianapolis Center
04:22PM 38.3286 -85.7094 335° Northwest 459 528 32,000  Level Indianapolis Center
04:23PM 38.4447 -85.7781 335° Northwest 459 528 32,000  Level Indianapolis Center
04:24PM 38.5594 -85.8461 335° Northwest 457 526 32,000  Level Indianapolis Center
04:25PM 38.6744 -85.9144 335° Northwest 456 525 32,000  Level Indianapolis Center
04:26PM 38.8128 -85.9967 335° Northwest 458 527 32,000  Level Indianapolis Center
04:27PM 38.9289 -86.0667 335° Northwest 453 521 32,000  Level Indianapolis Center
04:28PM 39.0433 -86.1353 335° Northwest 453 521 32,000  Level Indianapolis Center
04:29PM 39.1581 -86.2044 335° Northwest 454 522 32,000 -60 Level Indianapolis Center
04:30PM 39.2731 -86.2731 335° Northwest 455 524 31,900 -780 Descending Indianapolis Center
04:31PM 39.3875 -86.3439 334° Northwest 456 525 30,400 -960 Descending Indianapolis Center
04:32PM 39.5036 -86.4144 335° Northwest 457 526 30,000 -240 Descending Indianapolis Center
04:33PM 39.6194 -86.4858 335° Northwest 455 524 30,000  Level Indianapolis Center
04:34PM 39.7606 -86.5725 335° Northwest 458 527 30,000 -540 Level Indianapolis Center
04:35PM 39.8789 -86.6417 336° Northwest 459 528 28,900 -1,020 Descending Indianapolis Center
04:36PM 39.9972 -86.7078 337° Northwest 461 531 28,000 -480 Descending Indianapolis Center
04:37PM 40.1144 -86.7736 337° Northwest 458 527 28,000  Level Indianapolis Center
04:38PM 40.2292 -86.8400 336° Northwest 453 521 28,000  Level Indianapolis Center
04:39PM 40.3444 -86.9067 336° Northwest 452 520 28,000  Level Indianapolis Center
04:40PM 40.4586 -86.9728 336° Northwest 449 517 28,000  Level Indianapolis Center
04:41PM 40.5719 -87.0392 336° Northwest 449 517 28,000  Level Chicago Center
04:42PM 40.6886 -87.1058 337° Northwest 446 513 28,000  Level Chicago Center
04:44PM 40.8242 -87.1847 336° Northwest 447 514 28,000  Level Chicago Center
04:45PM 40.9367 -87.2503 336° Northwest 447 514 28,000  Level Chicago Center
04:46PM 41.0478 -87.3175 335° Northwest 442 509 28,000  Level Chicago Center
04:47PM 41.1708 -87.3492 349° North 458 527 28,000 -300 Level Chicago Center
04:48PM 41.3231 -87.3481 360° North 462 532 27,400 -900 Descending Chicago Center
04:49PM 41.4461 -87.3481 360° North 451 519 26,200 -1,200 Descending Chicago Center
04:50PM 41.5669 -87.3492 360° North 443 510 25,000 -1,080 Descending Chicago Center
04:51PM 41.6858 -87.3489 360° North 437 503 24,000 -780 Descending Chicago Center
04:52PM 41.8039 -87.3514 359° North 431 496 23,400 -1,200 Descending Chicago Center
04:53PM 41.9422 -87.3506 360° North 423 487 21,600 -1,620 Descending Chicago Center
04:54PM 42.0531 -87.3508 360° North 409 471 20,100 -960 Descending Chicago Center
04:55PM 42.1597 -87.3483 North 392 451 19,700 -900 Descending Chicago Center
04:56PM 42.2689 -87.3489 360° North 394 453 18,300 -1,680 Descending Chicago Center
04:57PM 42.3772 -87.3486 360° North 382 440 16,300 -2,520 Descending Chicago Center
04:58PM 42.4819 -87.3478 360° North 377 434 13,100 -2,520 Descending Chicago Center
04:59PM 42.6050 -87.3489 360° North 366 421 11,100 -1,440 Descending Chicago Center
05:00PM 42.7056 -87.3517 359° North 364 419 10,100 -540 Descending Chicago Center
05:01PM 42.7644 -87.4542 308° West 342 394 10,000 -780 Descending Chicago Center
05:02PM 42.7950 -87.5539 293° West 288 331 8,600 -1,440 Descending Chicago Center
05:03PM 42.8225 -87.6511 291° West 276 318 7,000 -780 Descending Chicago Center
05:04PM 42.8508 -87.7478 292° West 235 270 7,000  Level Chicago Center
05:05PM 42.8742 -87.8297 291° West 228 262 7,000 -60 Level Chicago Center
05:06PM 42.8567 -87.9114 254° West 222 255 6,900 -300 Descending Chicago Center
05:07PM 42.8356 -87.9911 250° West 223 257 6,500 -1,020 Descending Chicago Center
05:08PM 42.8125 -88.0678 248° West 222 255 4,900 -1,260 Descending Chicago Center
05:09PM 42.7897 -88.1436 248° West 218 251 3,900 -1,080 Descending Chicago Center
05:10PM 42.8353 -88.2139 311° West 229 264 2,700 -600 Descending Chicago Center
05:11PM 42.8731 -88.1797 34° Northeast 208 239 2,700  Level Chicago Center
05:13PM 42.8883 -88.1206 71° East 178 205 2,700  Level Chicago Center
05:14PM 42.9039 -88.0600 71° East 171 197 2,700 -360 Level Chicago Center
05:15PM 42.9167 -88.0000 74° East 144 166 2,000 -660 Descending KMKE
05:16PM 42.9333 -87.9500 66° East 118 136 1,400 -600 Descending KMKE